This is the latest recevied weather packets stored in our database for station/object SQ9MHX-13. If no packets are shown the sender has not sent any weather packets the latest 10 day(s).
| Time | Temp. | Humidity | Pressure | Rain* | Wind** | Luminosity | Snow |
|---|---|---|---|---|---|---|---|
| 1777552114 | 15° C | 26% | 976.6 hPa | - | 0 m/s | - | - |
| 1777551815 | 13.89° C | 26% | 977.3 hPa | - | 0 m/s | - | - |
| 1777550620 | 12.78° C | 28% | 979.1 hPa | - | 0 m/s | - | - |
| 1777550322 | 12.22° C | 29% | 980.2 hPa | - | 0 m/s | - | - |
| 1777549724 | 13.89° C | 27% | 977.9 hPa | - | 0 m/s | - | - |
| 1777549127 | 12.78° C | 29% | 978.2 hPa | - | 0 m/s | - | - |
| 1777548828 | 13.89° C | 28% | 978.4 hPa | - | 0 m/s | - | - |
| 1777548529 | 13.89° C | 29% | 978.5 hPa | - | 0 m/s | - | - |
| 1777548231 | 13.89° C | 31% | 977.9 hPa | - | 0 m/s | - | - |
| 1777547932 | 13.89° C | 28% | 978.5 hPa | - | 0 m/s | - | - |
| 1777547796 | 13.89° C | 29% | 978.7 hPa | - | 0 m/s | - | - |
| 1777547633 | 13.89° C | 29% | 978.7 hPa | - | 0 m/s | - | - |
| 1777547335 | 12.78° C | 31% | 979.2 hPa | - | 0 m/s | - | - |
| 1777547036 | 12.78° C | 29% | 979.3 hPa | - | 0 m/s | - | - |
| 1777546737 | 12.78° C | 30% | 979.2 hPa | - | 0 m/s | - | - |
| 1777546140 | 12.78° C | 29% | 979.9 hPa | - | 0 m/s | - | - |
| 1777545543 | 12.78° C | 28% | 980.7 hPa | - | 0 m/s | - | - |
| 1777545244 | 13.89° C | 29% | 978.9 hPa | - | 0 m/s | - | - |
| 1777544945 | 12.22° C | 30% | 980.6 hPa | - | 0 m/s | - | - |
| 1777544647 | 11.11° C | 32% | 980.7 hPa | - | 0 m/s | - | - |
| 1777544348 | 12.22° C | 29% | 980.9 hPa | - | 0 m/s | - | - |
| 1777544049 | 12.78° C | 30% | 980.7 hPa | - | 0 m/s | - | - |
| 1777543751 | 12.78° C | 30% | 980.3 hPa | - | 0 m/s | - | - |
| 1777543452 | 12.22° C | 33% | 980.7 hPa | - | 0 m/s | - | - |
| 1777543154 | 12.22° C | 31% | 980.3 hPa | - | 0 m/s | - | - |
* Rain since midnight (hover to see other rain measurements)
** Current wind speed in m/s (hover to see current wind gust speed)